sensor_id;sensor_type;location;lat;lon;timestamp;P1;durP1;ratioP1;P2;durP2;ratioP2
25627;SDS011;40915;50.826;4.356;2023-03-13T00:00:18;16.02;;;4.07;;
25627;SDS011;40915;50.826;4.356;2023-03-13T00:02:44;14.63;;;4.15;;
25627;SDS011;40915;50.826;4.356;2023-03-13T00:05:10;15.80;;;4.20;;
25627;SDS011;40915;50.826;4.356;2023-03-13T00:07:36;16.45;;;4.18;;
25627;SDS011;40915;50.826;4.356;2023-03-13T00:10:02;13.65;;;4.15;;
25627;SDS011;40915;50.826;4.356;2023-03-13T00:12:28;15.95;;;4.18;;
25627;SDS011;40915;50.826;4.356;2023-03-13T00:14:54;14.82;;;4.32;;
25627;SDS011;40915;50.826;4.356;2023-03-13T00:17:19;12.07;;;3.88;;
25627;SDS011;40915;50.826;4.356;2023-03-13T00:19:45;13.88;;;3.85;;
25627;SDS011;40915;50.826;4.356;2023-03-13T00:22:11;15.07;;;3.97;;
25627;SDS011;40915;50.826;4.356;2023-03-13T00:24:36;13.00;;;3.33;;
25627;SDS011;40915;50.826;4.356;2023-03-13T00:27:02;13.73;;;3.55;;
25627;SDS011;40915;50.826;4.356;2023-03-13T00:29:29;14.15;;;4.85;;
25627;SDS011;40915;50.826;4.356;2023-03-13T00:31:57;14.20;;;4.55;;
25627;SDS011;40915;50.826;4.356;2023-03-13T00:34:22;12.47;;;4.17;;
25627;SDS011;40915;50.826;4.356;2023-03-13T00:36:51;11.52;;;4.10;;
25627;SDS011;40915;50.826;4.356;2023-03-13T00:39:17;14.35;;;4.13;;
25627;SDS011;40915;50.826;4.356;2023-03-13T00:41:43;12.50;;;3.95;;
25627;SDS011;40915;50.826;4.356;2023-03-13T00:44:09;6.90;;;3.20;;
25627;SDS011;40915;50.826;4.356;2023-03-13T00:46:35;8.15;;;3.65;;
25627;SDS011;40915;50.826;4.356;2023-03-13T00:49:00;7.95;;;3.00;;
25627;SDS011;40915;50.826;4.356;2023-03-13T00:51:26;11.37;;;3.37;;
25627;SDS011;40915;50.826;4.356;2023-03-13T00:53:53;5.25;;;3.08;;
25627;SDS011;40915;50.826;4.356;2023-03-13T00:56:19;7.50;;;3.83;;
25627;SDS011;40915;50.826;4.356;2023-03-13T00:58:46;9.55;;;3.42;;
25627;SDS011;40915;50.826;4.356;2023-03-13T01:03:51;10.73;;;4.43;;
25627;SDS011;40915;50.826;4.356;2023-03-13T01:06:20;7.25;;;4.75;;
25627;SDS011;40915;50.826;4.356;2023-03-13T01:08:47;9.73;;;5.70;;
25627;SDS011;40915;50.826;4.356;2023-03-13T01:11:14;9.27;;;5.55;;
25627;SDS011;40915;50.826;4.356;2023-03-13T01:13:42;11.07;;;5.53;;
25627;SDS011;40915;50.826;4.356;2023-03-13T01:16:09;10.40;;;5.57;;
25627;SDS011;40915;50.826;4.356;2023-03-13T01:18:38;11.63;;;6.80;;
25627;SDS011;40915;50.826;4.356;2023-03-13T01:21:05;10.98;;;6.50;;
25627;SDS011;40915;50.826;4.356;2023-03-13T01:23:32;12.57;;;7.07;;
25627;SDS011;40915;50.826;4.356;2023-03-13T01:25:58;12.02;;;6.97;;
25627;SDS011;40915;50.826;4.356;2023-03-13T01:28:24;11.75;;;6.82;;
25627;SDS011;40915;50.826;4.356;2023-03-13T01:30:51;12.00;;;7.00;;
25627;SDS011;40915;50.826;4.356;2023-03-13T01:33:16;13.35;;;6.60;;
25627;SDS011;40915;50.826;4.356;2023-03-13T01:35:42;13.55;;;7.57;;
25627;SDS011;40915;50.826;4.356;2023-03-13T01:38:08;12.02;;;7.22;;
25627;SDS011;40915;50.826;4.356;2023-03-13T01:40:52;12.43;;;7.28;;
25627;SDS011;40915;50.826;4.356;2023-03-13T01:43:19;14.25;;;7.15;;
25627;SDS011;40915;50.826;4.356;2023-03-13T01:48:24;11.00;;;7.75;;
25627;SDS011;40915;50.826;4.356;2023-03-13T01:56:49;9.55;;;6.95;;
25627;SDS011;40915;50.826;4.356;2023-03-13T01:59:16;10.95;;;7.07;;
25627;SDS011;40915;50.826;4.356;2023-03-13T02:01:46;9.45;;;7.00;;
25627;SDS011;40915;50.826;4.356;2023-03-13T02:04:16;10.32;;;6.82;;
25627;SDS011;40915;50.826;4.356;2023-03-13T02:06:44;11.75;;;6.93;;
25627;SDS011;40915;50.826;4.356;2023-03-13T02:09:17;9.68;;;6.35;;
25627;SDS011;40915;50.826;4.356;2023-03-13T02:11:51;10.65;;;6.00;;
25627;SDS011;40915;50.826;4.356;2023-03-13T02:14:29;9.35;;;5.97;;
25627;SDS011;40915;50.826;4.356;2023-03-13T02:16:58;7.22;;;5.03;;
25627;SDS011;40915;50.826;4.356;2023-03-13T02:19:41;10.40;;;5.50;;
25627;SDS011;40915;50.826;4.356;2023-03-13T02:24:55;8.05;;;4.90;;
25627;SDS011;40915;50.826;4.356;2023-03-13T02:27:26;6.25;;;4.53;;
25627;SDS011;40915;50.826;4.356;2023-03-13T02:29:52;7.80;;;4.32;;
25627;SDS011;40915;50.826;4.356;2023-03-13T02:32:17;4.78;;;4.15;;
25627;SDS011;40915;50.826;4.356;2023-03-13T02:34:43;6.53;;;4.10;;
25627;SDS011;40915;50.826;4.356;2023-03-13T02:37:12;6.57;;;4.60;;
25627;SDS011;40915;50.826;4.356;2023-03-13T02:39:40;6.97;;;3.88;;
25627;SDS011;40915;50.826;4.356;2023-03-13T02:42:09;5.38;;;3.95;;
25627;SDS011;40915;50.826;4.356;2023-03-13T02:44:38;7.18;;;4.70;;
25627;SDS011;40915;50.826;4.356;2023-03-13T02:47:04;5.40;;;3.90;;
25627;SDS011;40915;50.826;4.356;2023-03-13T02:49:30;6.50;;;4.43;;
25627;SDS011;40915;50.826;4.356;2023-03-13T02:51:57;7.07;;;3.78;;
25627;SDS011;40915;50.826;4.356;2023-03-13T02:54:41;4.80;;;3.95;;
25627;SDS011;40915;50.826;4.356;2023-03-13T02:57:10;6.10;;;3.65;;
25627;SDS011;40915;50.826;4.356;2023-03-13T02:59:35;5.57;;;3.75;;
25627;SDS011;40915;50.826;4.356;2023-03-13T03:02:01;6.90;;;4.00;;
25627;SDS011;40915;50.826;4.356;2023-03-13T03:04:28;7.57;;;3.78;;
25627;SDS011;40915;50.826;4.356;2023-03-13T03:06:54;4.65;;;3.50;;
25627;SDS011;40915;50.826;4.356;2023-03-13T03:09:20;5.10;;;3.50;;
25627;SDS011;40915;50.826;4.356;2023-03-13T03:11:46;5.25;;;4.13;;
25627;SDS011;40915;50.826;4.356;2023-03-13T03:14:13;5.43;;;3.53;;
25627;SDS011;40915;50.826;4.356;2023-03-13T03:16:39;5.03;;;3.05;;
25627;SDS011;40915;50.826;4.356;2023-03-13T03:19:05;6.25;;;3.50;;
25627;SDS011;40915;50.826;4.356;2023-03-13T03:21:31;5.50;;;3.35;;
25627;SDS011;40915;50.826;4.356;2023-03-13T03:23:57;6.75;;;3.28;;
25627;SDS011;40915;50.826;4.356;2023-03-13T03:26:23;5.35;;;3.63;;
25627;SDS011;40915;50.826;4.356;2023-03-13T03:28:49;6.57;;;3.22;;
25627;SDS011;40915;50.826;4.356;2023-03-13T03:31:15;3.95;;;2.47;;
25627;SDS011;40915;50.826;4.356;2023-03-13T03:33:41;6.07;;;2.90;;
25627;SDS011;40915;50.826;4.356;2023-03-13T03:36:08;5.78;;;2.83;;
25627;SDS011;40915;50.826;4.356;2023-03-13T03:38:39;6.68;;;2.83;;
25627;SDS011;40915;50.826;4.356;2023-03-13T03:41:05;7.50;;;2.80;;
25627;SDS011;40915;50.826;4.356;2023-03-13T03:43:32;4.47;;;2.72;;
25627;SDS011;40915;50.826;4.356;2023-03-13T03:45:57;6.15;;;2.85;;
25627;SDS011;40915;50.826;4.356;2023-03-13T03:48:23;4.43;;;2.70;;
25627;SDS011;40915;50.826;4.356;2023-03-13T03:50:49;4.82;;;2.70;;
25627;SDS011;40915;50.826;4.356;2023-03-13T03:53:14;6.93;;;2.72;;
25627;SDS011;40915;50.826;4.356;2023-03-13T03:55:40;5.70;;;2.92;;
25627;SDS011;40915;50.826;4.356;2023-03-13T03:58:06;4.95;;;2.42;;
25627;SDS011;40915;50.826;4.356;2023-03-13T04:00:31;3.45;;;2.08;;
25627;SDS011;40915;50.826;4.356;2023-03-13T04:02:57;4.03;;;2.53;;
25627;SDS011;40915;50.826;4.356;2023-03-13T04:05:23;5.55;;;2.47;;
25627;SDS011;40915;50.826;4.356;2023-03-13T04:07:48;4.07;;;2.53;;
25627;SDS011;40915;50.826;4.356;2023-03-13T04:10:14;5.07;;;2.40;;
25627;SDS011;40915;50.826;4.356;2023-03-13T04:12:40;4.10;;;2.53;;
25627;SDS011;40915;50.826;4.356;2023-03-13T04:15:06;6.63;;;2.25;;
25627;SDS011;40915;50.826;4.356;2023-03-13T04:17:33;5.00;;;2.30;;
25627;SDS011;40915;50.826;4.356;2023-03-13T04:19:58;5.40;;;2.50;;
25627;SDS011;40915;50.826;4.356;2023-03-13T04:22:24;5.53;;;2.30;;
25627;SDS011;40915;50.826;4.356;2023-03-13T04:24:50;4.18;;;2.13;;
25627;SDS011;40915;50.826;4.356;2023-03-13T04:27:16;7.53;;;3.10;;
25627;SDS011;40915;50.826;4.356;2023-03-13T04:29:41;7.35;;;2.28;;
25627;SDS011;40915;50.826;4.356;2023-03-13T04:32:07;4.88;;;1.92;;
25627;SDS011;40915;50.826;4.356;2023-03-13T04:34:32;4.88;;;2.40;;
25627;SDS011;40915;50.826;4.356;2023-03-13T04:36:58;5.30;;;2.40;;
25627;SDS011;40915;50.826;4.356;2023-03-13T04:39:24;6.47;;;2.38;;
25627;SDS011;40915;50.826;4.356;2023-03-13T04:41:53;5.55;;;2.45;;
25627;SDS011;40915;50.826;4.356;2023-03-13T04:44:20;9.23;;;2.30;;
25627;SDS011;40915;50.826;4.356;2023-03-13T04:46:46;10.75;;;2.70;;
25627;SDS011;40915;50.826;4.356;2023-03-13T04:49:12;10.35;;;2.60;;
25627;SDS011;40915;50.826;4.356;2023-03-13T04:51:38;7.78;;;2.47;;
25627;SDS011;40915;50.826;4.356;2023-03-13T04:54:05;8.20;;;2.60;;
25627;SDS011;40915;50.826;4.356;2023-03-13T04:56:31;6.82;;;2.65;;
25627;SDS011;40915;50.826;4.356;2023-03-13T04:58:56;5.68;;;2.25;;
25627;SDS011;40915;50.826;4.356;2023-03-13T05:01:22;6.82;;;2.38;;
25627;SDS011;40915;50.826;4.356;2023-03-13T05:03:47;5.45;;;2.33;;
25627;SDS011;40915;50.826;4.356;2023-03-13T05:06:13;8.55;;;2.88;;
25627;SDS011;40915;50.826;4.356;2023-03-13T05:08:39;5.65;;;2.00;;
25627;SDS011;40915;50.826;4.356;2023-03-13T05:11:04;6.72;;;2.35;;
25627;SDS011;40915;50.826;4.356;2023-03-13T05:13:30;8.63;;;2.88;;
25627;SDS011;40915;50.826;4.356;2023-03-13T05:15:56;7.15;;;2.47;;
25627;SDS011;40915;50.826;4.356;2023-03-13T05:18:21;7.65;;;3.22;;
25627;SDS011;40915;50.826;4.356;2023-03-13T05:20:47;5.80;;;2.75;;
25627;SDS011;40915;50.826;4.356;2023-03-13T05:23:13;8.90;;;2.55;;
25627;SDS011;40915;50.826;4.356;2023-03-13T05:25:39;6.07;;;2.60;;
25627;SDS011;40915;50.826;4.356;2023-03-13T05:28:04;7.28;;;3.10;;
25627;SDS011;40915;50.826;4.356;2023-03-13T05:30:30;10.30;;;2.83;;
25627;SDS011;40915;50.826;4.356;2023-03-13T05:32:56;8.27;;;2.65;;
25627;SDS011;40915;50.826;4.356;2023-03-13T05:35:22;8.30;;;2.40;;
25627;SDS011;40915;50.826;4.356;2023-03-13T05:37:47;6.13;;;2.42;;
25627;SDS011;40915;50.826;4.356;2023-03-13T05:40:13;9.48;;;2.70;;
25627;SDS011;40915;50.826;4.356;2023-03-13T05:42:39;7.82;;;2.47;;
25627;SDS011;40915;50.826;4.356;2023-03-13T05:45:05;7.35;;;2.75;;
25627;SDS011;40915;50.826;4.356;2023-03-13T05:47:33;10.60;;;2.60;;
25627;SDS011;40915;50.826;4.356;2023-03-13T05:49:59;7.88;;;2.33;;
25627;SDS011;40915;50.826;4.356;2023-03-13T05:52:25;11.00;;;2.60;;
25627;SDS011;40915;50.826;4.356;2023-03-13T05:54:50;7.32;;;2.35;;
25627;SDS011;40915;50.826;4.356;2023-03-13T05:57:16;10.35;;;2.85;;
25627;SDS011;40915;50.826;4.356;2023-03-13T05:59:41;12.70;;;2.58;;
25627;SDS011;40915;50.826;4.356;2023-03-13T06:02:07;8.38;;;2.60;;
25627;SDS011;40915;50.826;4.356;2023-03-13T06:04:33;10.63;;;3.45;;
25627;SDS011;40915;50.826;4.356;2023-03-13T06:06:59;9.20;;;2.70;;
25627;SDS011;40915;50.826;4.356;2023-03-13T06:09:25;10.48;;;2.50;;
25627;SDS011;40915;50.826;4.356;2023-03-13T06:11:50;12.57;;;2.53;;
25627;SDS011;40915;50.826;4.356;2023-03-13T06:14:16;12.63;;;2.63;;
25627;SDS011;40915;50.826;4.356;2023-03-13T06:16:42;8.02;;;2.55;;
25627;SDS011;40915;50.826;4.356;2023-03-13T06:19:07;9.30;;;2.70;;
25627;SDS011;40915;50.826;4.356;2023-03-13T06:21:34;9.13;;;2.75;;
25627;SDS011;40915;50.826;4.356;2023-03-13T06:24:00;9.48;;;3.00;;
25627;SDS011;40915;50.826;4.356;2023-03-13T06:26:25;8.77;;;2.80;;
25627;SDS011;40915;50.826;4.356;2023-03-13T06:28:51;7.53;;;2.38;;
25627;SDS011;40915;50.826;4.356;2023-03-13T06:31:17;10.43;;;2.95;;
25627;SDS011;40915;50.826;4.356;2023-03-13T06:33:42;9.40;;;2.60;;
25627;SDS011;40915;50.826;4.356;2023-03-13T06:36:08;9.23;;;2.70;;
25627;SDS011;40915;50.826;4.356;2023-03-13T06:38:34;8.02;;;2.65;;
25627;SDS011;40915;50.826;4.356;2023-03-13T06:40:59;9.50;;;2.50;;
25627;SDS011;40915;50.826;4.356;2023-03-13T06:43:25;7.25;;;2.60;;
25627;SDS011;40915;50.826;4.356;2023-03-13T06:45:51;10.00;;;2.90;;
25627;SDS011;40915;50.826;4.356;2023-03-13T06:48:17;7.80;;;2.55;;
25627;SDS011;40915;50.826;4.356;2023-03-13T06:50:43;8.77;;;2.92;;
25627;SDS011;40915;50.826;4.356;2023-03-13T06:53:13;8.55;;;2.55;;
25627;SDS011;40915;50.826;4.356;2023-03-13T06:55:43;9.10;;;2.70;;
25627;SDS011;40915;50.826;4.356;2023-03-13T06:58:10;7.43;;;2.40;;
25627;SDS011;40915;50.826;4.356;2023-03-13T07:00:35;9.60;;;2.67;;
25627;SDS011;40915;50.826;4.356;2023-03-13T07:03:03;12.18;;;2.55;;
25627;SDS011;40915;50.826;4.356;2023-03-13T07:05:29;9.00;;;2.35;;
25627;SDS011;40915;50.826;4.356;2023-03-13T07:07:56;9.25;;;2.83;;
25627;SDS011;40915;50.826;4.356;2023-03-13T07:10:22;9.18;;;2.47;;
25627;SDS011;40915;50.826;4.356;2023-03-13T07:12:48;7.63;;;2.67;;
25627;SDS011;40915;50.826;4.356;2023-03-13T07:15:14;10.60;;;2.75;;
25627;SDS011;40915;50.826;4.356;2023-03-13T07:17:40;6.65;;;2.60;;
25627;SDS011;40915;50.826;4.356;2023-03-13T07:20:06;8.75;;;2.75;;
25627;SDS011;40915;50.826;4.356;2023-03-13T07:22:34;8.25;;;2.58;;
25627;SDS011;40915;50.826;4.356;2023-03-13T07:25:01;6.40;;;2.40;;
25627;SDS011;40915;50.826;4.356;2023-03-13T07:27:27;8.80;;;2.83;;
25627;SDS011;40915;50.826;4.356;2023-03-13T07:29:53;7.25;;;2.42;;
25627;SDS011;40915;50.826;4.356;2023-03-13T07:32:19;9.57;;;2.40;;
25627;SDS011;40915;50.826;4.356;2023-03-13T07:34:45;8.07;;;2.42;;
25627;SDS011;40915;50.826;4.356;2023-03-13T07:37:11;9.35;;;2.72;;
25627;SDS011;40915;50.826;4.356;2023-03-13T07:39:37;6.57;;;2.40;;
25627;SDS011;40915;50.826;4.356;2023-03-13T07:42:04;6.75;;;2.50;;
25627;SDS011;40915;50.826;4.356;2023-03-13T07:44:30;5.93;;;2.53;;
25627;SDS011;40915;50.826;4.356;2023-03-13T07:46:59;6.72;;;2.67;;
25627;SDS011;40915;50.826;4.356;2023-03-13T07:49:25;12.60;;;3.85;;
25627;SDS011;40915;50.826;4.356;2023-03-13T07:51:51;10.82;;;2.80;;
25627;SDS011;40915;50.826;4.356;2023-03-13T07:54:17;7.13;;;2.58;;
25627;SDS011;40915;50.826;4.356;2023-03-13T07:56:43;6.10;;;2.90;;
25627;SDS011;40915;50.826;4.356;2023-03-13T07:59:09;9.63;;;2.72;;
25627;SDS011;40915;50.826;4.356;2023-03-13T08:01:36;7.38;;;4.22;;
25627;SDS011;40915;50.826;4.356;2023-03-13T08:04:02;9.65;;;2.95;;
25627;SDS011;40915;50.826;4.356;2023-03-13T08:06:29;7.03;;;3.08;;
25627;SDS011;40915;50.826;4.356;2023-03-13T08:08:56;10.57;;;3.30;;
25627;SDS011;40915;50.826;4.356;2023-03-13T08:11:23;7.45;;;2.85;;
25627;SDS011;40915;50.826;4.356;2023-03-13T08:13:49;9.65;;;2.92;;
25627;SDS011;40915;50.826;4.356;2023-03-13T08:16:19;8.82;;;3.13;;
25627;SDS011;40915;50.826;4.356;2023-03-13T08:18:46;6.07;;;2.72;;
25627;SDS011;40915;50.826;4.356;2023-03-13T08:21:17;6.20;;;2.10;;
25627;SDS011;40915;50.826;4.356;2023-03-13T08:23:44;8.10;;;2.53;;
25627;SDS011;40915;50.826;4.356;2023-03-13T08:26:12;4.25;;;2.25;;
25627;SDS011;40915;50.826;4.356;2023-03-13T08:28:38;8.40;;;2.78;;
25627;SDS011;40915;50.826;4.356;2023-03-13T08:33:33;9.18;;;2.83;;
25627;SDS011;40915;50.826;4.356;2023-03-13T08:36:05;8.27;;;2.40;;
25627;SDS011;40915;50.826;4.356;2023-03-13T08:38:39;8.43;;;2.53;;
25627;SDS011;40915;50.826;4.356;2023-03-13T08:41:09;6.30;;;2.50;;
25627;SDS011;40915;50.826;4.356;2023-03-13T08:43:39;6.22;;;2.25;;
25627;SDS011;40915;50.826;4.356;2023-03-13T08:46:05;6.50;;;2.40;;
25627;SDS011;40915;50.826;4.356;2023-03-13T08:48:31;7.63;;;2.55;;
25627;SDS011;40915;50.826;4.356;2023-03-13T08:51:14;6.18;;;2.20;;
25627;SDS011;40915;50.826;4.356;2023-03-13T08:53:41;4.57;;;2.20;;
25627;SDS011;40915;50.826;4.356;2023-03-13T08:56:08;7.78;;;2.42;;
25627;SDS011;40915;50.826;4.356;2023-03-13T08:58:35;4.90;;;2.42;;
25627;SDS011;40915;50.826;4.356;2023-03-13T09:01:05;5.82;;;2.08;;
25627;SDS011;40915;50.826;4.356;2023-03-13T09:03:33;3.55;;;2.00;;
25627;SDS011;40915;50.826;4.356;2023-03-13T09:05:59;6.65;;;2.05;;
25627;SDS011;40915;50.826;4.356;2023-03-13T09:08:25;5.80;;;1.77;;
25627;SDS011;40915;50.826;4.356;2023-03-13T09:10:58;4.15;;;1.77;;
25627;SDS011;40915;50.826;4.356;2023-03-13T09:13:26;5.63;;;2.20;;
25627;SDS011;40915;50.826;4.356;2023-03-13T09:16:14;6.00;;;1.90;;
25627;SDS011;40915;50.826;4.356;2023-03-13T09:18:43;4.97;;;1.92;;
25627;SDS011;40915;50.826;4.356;2023-03-13T09:21:20;3.85;;;1.90;;
25627;SDS011;40915;50.826;4.356;2023-03-13T09:23:47;5.32;;;1.60;;
25627;SDS011;40915;50.826;4.356;2023-03-13T09:26:13;6.05;;;2.25;;
25627;SDS011;40915;50.826;4.356;2023-03-13T09:28:39;6.43;;;2.10;;
25627;SDS011;40915;50.826;4.356;2023-03-13T09:31:08;4.40;;;1.70;;
25627;SDS011;40915;50.826;4.356;2023-03-13T09:33:39;4.65;;;1.63;;
25627;SDS011;40915;50.826;4.356;2023-03-13T09:36:06;3.72;;;1.60;;
25627;SDS011;40915;50.826;4.356;2023-03-13T09:38:32;4.40;;;1.80;;
25627;SDS011;40915;50.826;4.356;2023-03-13T09:41:04;3.03;;;1.50;;
25627;SDS011;40915;50.826;4.356;2023-03-13T09:44:10;3.45;;;1.83;;
25627;SDS011;40915;50.826;4.356;2023-03-13T09:46:42;4.97;;;1.65;;
25627;SDS011;40915;50.826;4.356;2023-03-13T09:51:58;6.45;;;1.65;;
25627;SDS011;40915;50.826;4.356;2023-03-13T09:54:47;5.03;;;1.40;;
25627;SDS011;40915;50.826;4.356;2023-03-13T09:57:31;5.65;;;1.80;;
25627;SDS011;40915;50.826;4.356;2023-03-13T10:00:00;7.75;;;2.00;;
25627;SDS011;40915;50.826;4.356;2023-03-13T10:02:39;46.70;;;5.57;;
25627;SDS011;40915;50.826;4.356;2023-03-13T10:05:17;4.85;;;1.90;;
25627;SDS011;40915;50.826;4.356;2023-03-13T10:07:45;5.32;;;1.67;;
25627;SDS011;40915;50.826;4.356;2023-03-13T10:10:19;7.47;;;1.95;;
25627;SDS011;40915;50.826;4.356;2023-03-13T10:13:09;32.17;;;4.22;;
25627;SDS011;40915;50.826;4.356;2023-03-13T10:15:45;9.13;;;1.70;;
25627;SDS011;40915;50.826;4.356;2023-03-13T10:18:21;7.90;;;1.75;;
25627;SDS011;40915;50.826;4.356;2023-03-13T10:20:49;4.60;;;1.50;;
25627;SDS011;40915;50.826;4.356;2023-03-13T10:25:51;31.48;;;3.17;;
25627;SDS011;40915;50.826;4.356;2023-03-13T10:28:17;4.57;;;1.48;;
25627;SDS011;40915;50.826;4.356;2023-03-13T10:30:48;3.22;;;1.40;;
25627;SDS011;40915;50.826;4.356;2023-03-13T10:33:25;2.92;;;1.52;;
25627;SDS011;40915;50.826;4.356;2023-03-13T10:36:25;2.45;;;1.50;;
25627;SDS011;40915;50.826;4.356;2023-03-13T10:38:45;4.85;;;1.52;;
25627;SDS011;40915;50.826;4.356;2023-03-13T10:41:28;6.97;;;2.55;;
25627;SDS011;40915;50.826;4.356;2023-03-13T10:44:03;5.35;;;1.70;;
25627;SDS011;40915;50.826;4.356;2023-03-13T10:46:33;3.67;;;1.30;;
25627;SDS011;40915;50.826;4.356;2023-03-13T10:49:04;3.60;;;1.75;;
25627;SDS011;40915;50.826;4.356;2023-03-13T10:56:49;6.78;;;1.70;;
25627;SDS011;40915;50.826;4.356;2023-03-13T10:59:24;4.70;;;1.58;;
25627;SDS011;40915;50.826;4.356;2023-03-13T11:01:52;11.25;;;1.60;;
25627;SDS011;40915;50.826;4.356;2023-03-13T11:04:29;5.55;;;1.90;;
25627;SDS011;40915;50.826;4.356;2023-03-13T11:07:04;5.63;;;2.00;;
25627;SDS011;40915;50.826;4.356;2023-03-13T11:09:38;3.95;;;1.50;;
25627;SDS011;40915;50.826;4.356;2023-03-13T11:12:05;3.95;;;1.50;;
25627;SDS011;40915;50.826;4.356;2023-03-13T11:14:37;7.32;;;1.50;;
25627;SDS011;40915;50.826;4.356;2023-03-13T11:27:57;4.60;;;1.30;;
25627;SDS011;40915;50.826;4.356;2023-03-13T11:33:27;4.40;;;2.20;;
25627;SDS011;40915;50.826;4.356;2023-03-13T11:36:01;4.63;;;1.05;;
25627;SDS011;40915;50.826;4.356;2023-03-13T11:41:44;3.85;;;1.25;;
25627;SDS011;40915;50.826;4.356;2023-03-13T11:44:23;3.28;;;1.00;;
25627;SDS011;40915;50.826;4.356;2023-03-13T12:01:22;5.70;;;1.13;;
25627;SDS011;40915;50.826;4.356;2023-03-13T12:03:53;8.18;;;1.73;;
25627;SDS011;40915;50.826;4.356;2023-03-13T12:06:35;6.10;;;1.40;;
25627;SDS011;40915;50.826;4.356;2023-03-13T12:11:40;8.68;;;1.65;;
25627;SDS011;40915;50.826;4.356;2023-03-13T12:14:25;4.25;;;1.40;;
25627;SDS011;40915;50.826;4.356;2023-03-13T12:17:12;10.00;;;2.13;;
25627;SDS011;40915;50.826;4.356;2023-03-13T12:19:51;2.88;;;1.20;;
25627;SDS011;40915;50.826;4.356;2023-03-13T12:22:27;6.82;;;1.40;;
25627;SDS011;40915;50.826;4.356;2023-03-13T12:25:01;5.18;;;1.88;;
25627;SDS011;40915;50.826;4.356;2023-03-13T12:27:30;6.20;;;1.40;;
25627;SDS011;40915;50.826;4.356;2023-03-13T12:30:04;4.78;;;1.00;;
25627;SDS011;40915;50.826;4.356;2023-03-13T12:32:33;7.57;;;1.40;;
25627;SDS011;40915;50.826;4.356;2023-03-13T12:43:53;6.82;;;1.50;;
25627;SDS011;40915;50.826;4.356;2023-03-13T12:59:39;9.88;;;1.50;;
25627;SDS011;40915;50.826;4.356;2023-03-13T13:02:20;9.90;;;1.48;;
25627;SDS011;40915;50.826;4.356;2023-03-13T13:04:49;5.43;;;1.27;;
25627;SDS011;40915;50.826;4.356;2023-03-13T13:10:14;4.18;;;1.20;;
25627;SDS011;40915;50.826;4.356;2023-03-13T13:12:44;8.88;;;1.88;;
25627;SDS011;40915;50.826;4.356;2023-03-13T13:17:50;3.83;;;1.30;;
25627;SDS011;40915;50.826;4.356;2023-03-13T13:20:34;4.10;;;1.25;;
25627;SDS011;40915;50.826;4.356;2023-03-13T13:23:25;3.17;;;1.30;;
25627;SDS011;40915;50.826;4.356;2023-03-13T13:25:50;2.83;;;1.10;;
25627;SDS011;40915;50.826;4.356;2023-03-13T13:30:50;8.20;;;1.77;;
25627;SDS011;40915;50.826;4.356;2023-03-13T13:38:38;8.30;;;1.55;;
25627;SDS011;40915;50.826;4.356;2023-03-13T13:43:39;7.45;;;1.55;;
25627;SDS011;40915;50.826;4.356;2023-03-13T13:48:38;7.70;;;1.90;;
25627;SDS011;40915;50.826;4.356;2023-03-13T13:53:46;4.18;;;1.25;;
25627;SDS011;40915;50.826;4.356;2023-03-13T13:58:58;5.93;;;1.35;;
25627;SDS011;40915;50.826;4.356;2023-03-13T14:01:26;5.15;;;1.45;;
25627;SDS011;40915;50.826;4.356;2023-03-13T14:03:57;6.30;;;1.50;;
25627;SDS011;40915;50.826;4.356;2023-03-13T14:06:29;7.35;;;1.73;;
25627;SDS011;40915;50.826;4.356;2023-03-13T14:09:10;8.77;;;1.60;;
25627;SDS011;40915;50.826;4.356;2023-03-13T14:11:39;3.25;;;1.30;;
25627;SDS011;40915;50.826;4.356;2023-03-13T14:16:41;8.40;;;1.75;;
25627;SDS011;40915;50.826;4.356;2023-03-13T14:19:29;5.35;;;1.30;;
25627;SDS011;40915;50.826;4.356;2023-03-13T14:21:57;7.55;;;1.73;;
25627;SDS011;40915;50.826;4.356;2023-03-13T14:24:24;6.63;;;1.58;;
25627;SDS011;40915;50.826;4.356;2023-03-13T14:26:51;4.80;;;1.38;;
25627;SDS011;40915;50.826;4.356;2023-03-13T14:29:19;6.45;;;1.50;;
25627;SDS011;40915;50.826;4.356;2023-03-13T14:31:57;4.95;;;1.50;;
25627;SDS011;40915;50.826;4.356;2023-03-13T14:34:24;9.40;;;1.83;;
25627;SDS011;40915;50.826;4.356;2023-03-13T14:36:54;3.70;;;1.30;;
25627;SDS011;40915;50.826;4.356;2023-03-13T14:42:05;11.20;;;1.92;;
25627;SDS011;40915;50.826;4.356;2023-03-13T14:44:32;12.68;;;3.38;;
25627;SDS011;40915;50.826;4.356;2023-03-13T14:47:04;7.18;;;1.65;;
25627;SDS011;40915;50.826;4.356;2023-03-13T14:49:32;8.57;;;1.90;;
25627;SDS011;40915;50.826;4.356;2023-03-13T14:52:00;5.90;;;2.00;;
25627;SDS011;40915;50.826;4.356;2023-03-13T14:54:32;8.60;;;1.75;;
25627;SDS011;40915;50.826;4.356;2023-03-13T14:59:34;6.32;;;1.67;;
25627;SDS011;40915;50.826;4.356;2023-03-13T15:02:01;6.20;;;1.92;;
25627;SDS011;40915;50.826;4.356;2023-03-13T15:07:24;9.68;;;2.30;;
25627;SDS011;40915;50.826;4.356;2023-03-13T15:10:21;4.57;;;1.45;;
25627;SDS011;40915;50.826;4.356;2023-03-13T15:12:47;8.18;;;1.80;;
25627;SDS011;40915;50.826;4.356;2023-03-13T15:15:13;10.90;;;1.75;;
25627;SDS011;40915;50.826;4.356;2023-03-13T15:17:39;6.80;;;1.67;;
25627;SDS011;40915;50.826;4.356;2023-03-13T15:20:05;12.77;;;1.88;;
25627;SDS011;40915;50.826;4.356;2023-03-13T15:22:37;9.90;;;2.00;;
25627;SDS011;40915;50.826;4.356;2023-03-13T15:27:40;10.82;;;2.08;;
25627;SDS011;40915;50.826;4.356;2023-03-13T15:30:08;7.38;;;1.88;;
25627;SDS011;40915;50.826;4.356;2023-03-13T15:32:36;10.23;;;2.15;;
25627;SDS011;40915;50.826;4.356;2023-03-13T15:35:10;9.65;;;1.98;;
25627;SDS011;40915;50.826;4.356;2023-03-13T15:37:43;10.70;;;2.45;;
25627;SDS011;40915;50.826;4.356;2023-03-13T15:40:13;6.30;;;1.80;;
25627;SDS011;40915;50.826;4.356;2023-03-13T15:42:41;11.25;;;1.73;;
25627;SDS011;40915;50.826;4.356;2023-03-13T15:45:08;6.03;;;2.00;;
25627;SDS011;40915;50.826;4.356;2023-03-13T15:47:35;10.68;;;2.08;;
25627;SDS011;40915;50.826;4.356;2023-03-13T15:50:02;10.10;;;2.47;;
25627;SDS011;40915;50.826;4.356;2023-03-13T15:52:30;10.75;;;2.40;;
25627;SDS011;40915;50.826;4.356;2023-03-13T15:54:57;15.02;;;2.20;;
25627;SDS011;40915;50.826;4.356;2023-03-13T15:57:26;8.02;;;2.17;;
25627;SDS011;40915;50.826;4.356;2023-03-13T15:59:54;7.75;;;2.00;;
25627;SDS011;40915;50.826;4.356;2023-03-13T16:02:22;8.00;;;2.05;;
25627;SDS011;40915;50.826;4.356;2023-03-13T16:04:49;10.63;;;2.15;;
25627;SDS011;40915;50.826;4.356;2023-03-13T16:07:16;7.07;;;1.90;;
25627;SDS011;40915;50.826;4.356;2023-03-13T16:09:44;10.27;;;2.08;;
25627;SDS011;40915;50.826;4.356;2023-03-13T16:12:12;5.75;;;1.50;;
25627;SDS011;40915;50.826;4.356;2023-03-13T16:14:40;12.35;;;2.33;;
25627;SDS011;40915;50.826;4.356;2023-03-13T16:17:11;6.45;;;1.90;;
25627;SDS011;40915;50.826;4.356;2023-03-13T16:19:39;8.52;;;2.05;;
25627;SDS011;40915;50.826;4.356;2023-03-13T16:22:08;7.65;;;1.80;;
25627;SDS011;40915;50.826;4.356;2023-03-13T16:24:38;7.63;;;1.48;;
25627;SDS011;40915;50.826;4.356;2023-03-13T16:27:10;6.95;;;2.05;;
25627;SDS011;40915;50.826;4.356;2023-03-13T16:29:40;8.02;;;2.08;;
25627;SDS011;40915;50.826;4.356;2023-03-13T16:32:11;4.88;;;1.90;;
25627;SDS011;40915;50.826;4.356;2023-03-13T16:34:40;16.52;;;2.10;;
25627;SDS011;40915;50.826;4.356;2023-03-13T16:37:12;12.10;;;2.45;;
25627;SDS011;40915;50.826;4.356;2023-03-13T16:39:40;9.20;;;1.83;;
25627;SDS011;40915;50.826;4.356;2023-03-13T16:42:08;8.35;;;2.45;;
25627;SDS011;40915;50.826;4.356;2023-03-13T16:44:36;13.93;;;2.22;;
25627;SDS011;40915;50.826;4.356;2023-03-13T16:47:06;10.43;;;2.28;;
25627;SDS011;40915;50.826;4.356;2023-03-13T16:49:34;12.05;;;2.67;;
25627;SDS011;40915;50.826;4.356;2023-03-13T16:52:02;8.98;;;1.77;;
25627;SDS011;40915;50.826;4.356;2023-03-13T16:54:30;10.30;;;2.30;;